sensor_id;sensor_type;location;lat;lon;timestamp;P1;durP1;ratioP1;P2;durP2;ratioP2
10659;SDS011;5378;53.206;13.316;2023-09-30T00:02:05;10.30;;;2.30;;
10659;SDS011;5378;53.206;13.316;2023-09-30T00:04:53;6.30;;;1.50;;
10659;SDS011;5378;53.206;13.316;2023-09-30T00:07:40;3.37;;;1.50;;
10659;SDS011;5378;53.206;13.316;2023-09-30T00:10:27;9.47;;;2.13;;
10659;SDS011;5378;53.206;13.316;2023-09-30T00:13:15;12.20;;;2.70;;
10659;SDS011;5378;53.206;13.316;2023-09-30T00:16:03;9.90;;;2.30;;
10659;SDS011;5378;53.206;13.316;2023-09-30T00:18:51;10.77;;;1.97;;
10659;SDS011;5378;53.206;13.316;2023-09-30T00:21:40;7.47;;;1.87;;
10659;SDS011;5378;53.206;13.316;2023-09-30T00:24:28;7.43;;;2.20;;
10659;SDS011;5378;53.206;13.316;2023-09-30T00:27:15;11.10;;;2.30;;
10659;SDS011;5378;53.206;13.316;2023-09-30T00:30:01;8.63;;;2.10;;
10659;SDS011;5378;53.206;13.316;2023-09-30T00:32:50;16.93;;;2.00;;
10659;SDS011;5378;53.206;13.316;2023-09-30T00:35:37;5.93;;;2.57;;
10659;SDS011;5378;53.206;13.316;2023-09-30T00:38:25;9.63;;;2.33;;
10659;SDS011;5378;53.206;13.316;2023-09-30T00:41:12;10.97;;;2.30;;
10659;SDS011;5378;53.206;13.316;2023-09-30T00:43:59;6.20;;;1.40;;
10659;SDS011;5378;53.206;13.316;2023-09-30T00:46:46;13.20;;;2.40;;
10659;SDS011;5378;53.206;13.316;2023-09-30T00:49:34;11.63;;;2.40;;
10659;SDS011;5378;53.206;13.316;2023-09-30T00:52:21;11.07;;;2.60;;
10659;SDS011;5378;53.206;13.316;2023-09-30T00:55:11;10.27;;;1.93;;
10659;SDS011;5378;53.206;13.316;2023-09-30T00:57:59;23.57;;;2.63;;
10659;SDS011;5378;53.206;13.316;2023-09-30T01:00:46;7.80;;;1.60;;
10659;SDS011;5378;53.206;13.316;2023-09-30T01:03:34;9.27;;;3.13;;
10659;SDS011;5378;53.206;13.316;2023-09-30T01:06:21;4.87;;;2.13;;
10659;SDS011;5378;53.206;13.316;2023-09-30T01:09:09;7.27;;;1.70;;
10659;SDS011;5378;53.206;13.316;2023-09-30T01:11:59;14.07;;;3.07;;
10659;SDS011;5378;53.206;13.316;2023-09-30T01:14:46;6.60;;;2.40;;
10659;SDS011;5378;53.206;13.316;2023-09-30T01:17:33;10.70;;;2.17;;
10659;SDS011;5378;53.206;13.316;2023-09-30T01:20:20;10.53;;;2.60;;
10659;SDS011;5378;53.206;13.316;2023-09-30T01:23:10;20.33;;;2.10;;
10659;SDS011;5378;53.206;13.316;2023-09-30T01:26:00;9.80;;;2.90;;
10659;SDS011;5378;53.206;13.316;2023-09-30T01:28:48;12.73;;;2.63;;
10659;SDS011;5378;53.206;13.316;2023-09-30T01:31:35;8.83;;;2.53;;
10659;SDS011;5378;53.206;13.316;2023-09-30T01:34:23;13.60;;;2.77;;
10659;SDS011;5378;53.206;13.316;2023-09-30T01:37:10;9.47;;;2.50;;
10659;SDS011;5378;53.206;13.316;2023-09-30T01:39:58;11.43;;;4.43;;
10659;SDS011;5378;53.206;13.316;2023-09-30T01:42:46;6.93;;;1.83;;
10659;SDS011;5378;53.206;13.316;2023-09-30T01:45:33;7.80;;;2.90;;
10659;SDS011;5378;53.206;13.316;2023-09-30T01:48:21;13.83;;;1.83;;
10659;SDS011;5378;53.206;13.316;2023-09-30T01:51:08;13.87;;;2.60;;
10659;SDS011;5378;53.206;13.316;2023-09-30T01:53:55;8.33;;;2.60;;
10659;SDS011;5378;53.206;13.316;2023-09-30T01:56:43;14.93;;;3.40;;
10659;SDS011;5378;53.206;13.316;2023-09-30T01:59:30;22.80;;;2.33;;
10659;SDS011;5378;53.206;13.316;2023-09-30T02:02:18;9.63;;;2.30;;
10659;SDS011;5378;53.206;13.316;2023-09-30T02:05:06;12.97;;;2.90;;
10659;SDS011;5378;53.206;13.316;2023-09-30T02:07:54;17.97;;;3.07;;
10659;SDS011;5378;53.206;13.316;2023-09-30T02:10:42;10.33;;;2.30;;
10659;SDS011;5378;53.206;13.316;2023-09-30T02:13:30;10.97;;;2.50;;
10659;SDS011;5378;53.206;13.316;2023-09-30T02:16:18;12.53;;;2.97;;
10659;SDS011;5378;53.206;13.316;2023-09-30T02:19:05;13.27;;;3.00;;
10659;SDS011;5378;53.206;13.316;2023-09-30T02:21:52;15.90;;;3.03;;
10659;SDS011;5378;53.206;13.316;2023-09-30T02:24:39;22.10;;;3.20;;
10659;SDS011;5378;53.206;13.316;2023-09-30T02:27:26;15.30;;;3.07;;
10659;SDS011;5378;53.206;13.316;2023-09-30T02:30:17;16.47;;;2.77;;
10659;SDS011;5378;53.206;13.316;2023-09-30T02:33:03;11.60;;;3.37;;
10659;SDS011;5378;53.206;13.316;2023-09-30T02:35:52;8.73;;;2.07;;
10659;SDS011;5378;53.206;13.316;2023-09-30T02:38:39;13.80;;;2.97;;
10659;SDS011;5378;53.206;13.316;2023-09-30T02:41:27;12.43;;;2.20;;
10659;SDS011;5378;53.206;13.316;2023-09-30T02:44:14;9.93;;;2.90;;
10659;SDS011;5378;53.206;13.316;2023-09-30T02:47:03;10.43;;;2.57;;
10659;SDS011;5378;53.206;13.316;2023-09-30T02:49:50;22.40;;;3.30;;
10659;SDS011;5378;53.206;13.316;2023-09-30T02:52:37;11.63;;;2.80;;
10659;SDS011;5378;53.206;13.316;2023-09-30T02:55:26;19.07;;;4.07;;
10659;SDS011;5378;53.206;13.316;2023-09-30T02:58:13;13.50;;;2.83;;
10659;SDS011;5378;53.206;13.316;2023-09-30T03:01:00;18.23;;;3.63;;
10659;SDS011;5378;53.206;13.316;2023-09-30T03:03:48;7.50;;;2.83;;
10659;SDS011;5378;53.206;13.316;2023-09-30T03:06:35;13.03;;;2.23;;
10659;SDS011;5378;53.206;13.316;2023-09-30T03:09:24;10.20;;;2.97;;
10659;SDS011;5378;53.206;13.316;2023-09-30T03:12:11;12.23;;;2.67;;
10659;SDS011;5378;53.206;13.316;2023-09-30T03:14:59;16.23;;;3.27;;
10659;SDS011;5378;53.206;13.316;2023-09-30T03:17:50;12.17;;;2.90;;
10659;SDS011;5378;53.206;13.316;2023-09-30T03:20:39;8.83;;;2.03;;
10659;SDS011;5378;53.206;13.316;2023-09-30T03:23:26;15.53;;;2.77;;
10659;SDS011;5378;53.206;13.316;2023-09-30T03:26:15;17.33;;;3.40;;
10659;SDS011;5378;53.206;13.316;2023-09-30T03:29:03;14.07;;;3.60;;
10659;SDS011;5378;53.206;13.316;2023-09-30T03:31:51;9.20;;;2.17;;
10659;SDS011;5378;53.206;13.316;2023-09-30T03:34:38;11.23;;;2.90;;
10659;SDS011;5378;53.206;13.316;2023-09-30T03:37:31;9.27;;;3.40;;
10659;SDS011;5378;53.206;13.316;2023-09-30T03:40:20;22.30;;;3.57;;
10659;SDS011;5378;53.206;13.316;2023-09-30T03:43:13;14.70;;;2.90;;
10659;SDS011;5378;53.206;13.316;2023-09-30T03:46:01;15.73;;;2.97;;
10659;SDS011;5378;53.206;13.316;2023-09-30T03:48:48;14.97;;;3.40;;
10659;SDS011;5378;53.206;13.316;2023-09-30T03:51:35;19.83;;;3.70;;
10659;SDS011;5378;53.206;13.316;2023-09-30T03:54:24;10.13;;;2.83;;
10659;SDS011;5378;53.206;13.316;2023-09-30T03:57:12;13.33;;;2.47;;
10659;SDS011;5378;53.206;13.316;2023-09-30T04:00:02;20.97;;;2.97;;
10659;SDS011;5378;53.206;13.316;2023-09-30T04:02:57;10.87;;;3.20;;
10659;SDS011;5378;53.206;13.316;2023-09-30T04:05:44;7.43;;;2.37;;
10659;SDS011;5378;53.206;13.316;2023-09-30T04:08:33;10.87;;;3.10;;
10659;SDS011;5378;53.206;13.316;2023-09-30T04:11:22;9.27;;;2.73;;
10659;SDS011;5378;53.206;13.316;2023-09-30T04:14:09;15.23;;;3.80;;
10659;SDS011;5378;53.206;13.316;2023-09-30T04:16:57;11.70;;;2.83;;
10659;SDS011;5378;53.206;13.316;2023-09-30T04:19:44;10.43;;;2.90;;
10659;SDS011;5378;53.206;13.316;2023-09-30T04:22:36;10.83;;;2.67;;
10659;SDS011;5378;53.206;13.316;2023-09-30T04:25:24;18.03;;;3.57;;
10659;SDS011;5378;53.206;13.316;2023-09-30T04:28:14;11.50;;;2.40;;
10659;SDS011;5378;53.206;13.316;2023-09-30T04:31:02;13.50;;;2.50;;
10659;SDS011;5378;53.206;13.316;2023-09-30T04:33:49;19.20;;;3.90;;
10659;SDS011;5378;53.206;13.316;2023-09-30T04:36:38;16.03;;;3.40;;
10659;SDS011;5378;53.206;13.316;2023-09-30T04:39:25;9.10;;;2.23;;
10659;SDS011;5378;53.206;13.316;2023-09-30T04:42:12;11.80;;;3.37;;
10659;SDS011;5378;53.206;13.316;2023-09-30T04:45:02;13.60;;;2.77;;
10659;SDS011;5378;53.206;13.316;2023-09-30T04:47:52;10.37;;;2.80;;
10659;SDS011;5378;53.206;13.316;2023-09-30T04:50:39;13.67;;;3.03;;
10659;SDS011;5378;53.206;13.316;2023-09-30T04:53:27;4.83;;;1.90;;
10659;SDS011;5378;53.206;13.316;2023-09-30T04:56:14;14.07;;;2.70;;
10659;SDS011;5378;53.206;13.316;2023-09-30T04:59:02;14.70;;;3.03;;
10659;SDS011;5378;53.206;13.316;2023-09-30T05:01:51;27.73;;;3.30;;
10659;SDS011;5378;53.206;13.316;2023-09-30T05:04:38;12.40;;;2.60;;
10659;SDS011;5378;53.206;13.316;2023-09-30T05:07:25;10.00;;;2.50;;
10659;SDS011;5378;53.206;13.316;2023-09-30T05:10:14;8.40;;;2.13;;
10659;SDS011;5378;53.206;13.316;2023-09-30T05:13:02;11.93;;;3.10;;
10659;SDS011;5378;53.206;13.316;2023-09-30T05:15:50;22.83;;;2.83;;
10659;SDS011;5378;53.206;13.316;2023-09-30T05:18:39;17.20;;;2.40;;
10659;SDS011;5378;53.206;13.316;2023-09-30T05:21:28;12.27;;;2.40;;
10659;SDS011;5378;53.206;13.316;2023-09-30T05:24:15;20.43;;;3.33;;
10659;SDS011;5378;53.206;13.316;2023-09-30T05:27:04;11.13;;;3.20;;
10659;SDS011;5378;53.206;13.316;2023-09-30T05:29:52;12.80;;;3.00;;
10659;SDS011;5378;53.206;13.316;2023-09-30T05:32:40;8.33;;;3.10;;
10659;SDS011;5378;53.206;13.316;2023-09-30T05:35:28;9.10;;;3.00;;
10659;SDS011;5378;53.206;13.316;2023-09-30T05:38:17;10.30;;;2.43;;
10659;SDS011;5378;53.206;13.316;2023-09-30T05:41:05;7.10;;;2.20;;
10659;SDS011;5378;53.206;13.316;2023-09-30T05:43:52;12.10;;;3.10;;
10659;SDS011;5378;53.206;13.316;2023-09-30T05:46:40;9.27;;;3.00;;
10659;SDS011;5378;53.206;13.316;2023-09-30T05:49:28;6.13;;;2.30;;
10659;SDS011;5378;53.206;13.316;2023-09-30T05:52:17;6.23;;;2.23;;
10659;SDS011;5378;53.206;13.316;2023-09-30T05:55:05;23.10;;;3.17;;
10659;SDS011;5378;53.206;13.316;2023-09-30T05:57:52;17.23;;;3.13;;
10659;SDS011;5378;53.206;13.316;2023-09-30T06:00:39;10.27;;;2.67;;
10659;SDS011;5378;53.206;13.316;2023-09-30T06:03:27;10.73;;;2.50;;
10659;SDS011;5378;53.206;13.316;2023-09-30T06:06:15;5.70;;;2.43;;
10659;SDS011;5378;53.206;13.316;2023-09-30T06:09:04;8.83;;;2.50;;
10659;SDS011;5378;53.206;13.316;2023-09-30T06:11:53;9.60;;;2.30;;
10659;SDS011;5378;53.206;13.316;2023-09-30T06:14:40;11.47;;;2.47;;
10659;SDS011;5378;53.206;13.316;2023-09-30T06:17:27;10.73;;;2.53;;
10659;SDS011;5378;53.206;13.316;2023-09-30T06:20:14;15.27;;;2.70;;
10659;SDS011;5378;53.206;13.316;2023-09-30T06:23:03;21.63;;;2.90;;
10659;SDS011;5378;53.206;13.316;2023-09-30T06:25:51;13.60;;;2.80;;
10659;SDS011;5378;53.206;13.316;2023-09-30T06:28:38;9.47;;;2.77;;
10659;SDS011;5378;53.206;13.316;2023-09-30T06:31:26;8.60;;;2.60;;
10659;SDS011;5378;53.206;13.316;2023-09-30T06:34:14;7.63;;;2.73;;
10659;SDS011;5378;53.206;13.316;2023-09-30T06:37:02;21.57;;;3.93;;
10659;SDS011;5378;53.206;13.316;2023-09-30T06:39:49;18.53;;;3.03;;
10659;SDS011;5378;53.206;13.316;2023-09-30T06:42:38;10.03;;;3.47;;
10659;SDS011;5378;53.206;13.316;2023-09-30T06:45:26;13.07;;;3.20;;
10659;SDS011;5378;53.206;13.316;2023-09-30T06:48:13;12.20;;;3.93;;
10659;SDS011;5378;53.206;13.316;2023-09-30T06:51:00;8.83;;;2.67;;
10659;SDS011;5378;53.206;13.316;2023-09-30T06:53:48;13.20;;;2.23;;
10659;SDS011;5378;53.206;13.316;2023-09-30T06:56:35;14.57;;;3.03;;
10659;SDS011;5378;53.206;13.316;2023-09-30T06:59:23;11.23;;;2.70;;
10659;SDS011;5378;53.206;13.316;2023-09-30T07:02:10;11.33;;;2.90;;
10659;SDS011;5378;53.206;13.316;2023-09-30T07:04:58;13.87;;;2.80;;
10659;SDS011;5378;53.206;13.316;2023-09-30T07:07:45;11.13;;;2.50;;
10659;SDS011;5378;53.206;13.316;2023-09-30T07:10:32;10.20;;;2.60;;
10659;SDS011;5378;53.206;13.316;2023-09-30T07:13:19;9.50;;;2.40;;
10659;SDS011;5378;53.206;13.316;2023-09-30T07:16:08;6.70;;;2.70;;
10659;SDS011;5378;53.206;13.316;2023-09-30T07:18:55;7.63;;;3.03;;
10659;SDS011;5378;53.206;13.316;2023-09-30T07:21:43;7.23;;;2.60;;
10659;SDS011;5378;53.206;13.316;2023-09-30T07:24:36;5.00;;;2.70;;
10659;SDS011;5378;53.206;13.316;2023-09-30T07:27:25;7.50;;;2.60;;
10659;SDS011;5378;53.206;13.316;2023-09-30T07:30:12;8.63;;;2.67;;
10659;SDS011;5378;53.206;13.316;2023-09-30T07:33:02;8.43;;;2.70;;
10659;SDS011;5378;53.206;13.316;2023-09-30T07:35:50;12.20;;;2.77;;
10659;SDS011;5378;53.206;13.316;2023-09-30T07:38:37;14.80;;;3.10;;
10659;SDS011;5378;53.206;13.316;2023-09-30T07:41:26;20.33;;;3.90;;
10659;SDS011;5378;53.206;13.316;2023-09-30T07:44:13;11.03;;;2.67;;
10659;SDS011;5378;53.206;13.316;2023-09-30T07:47:00;16.10;;;3.00;;
10659;SDS011;5378;53.206;13.316;2023-09-30T07:49:50;9.03;;;2.90;;
10659;SDS011;5378;53.206;13.316;2023-09-30T07:52:37;17.60;;;2.97;;
10659;SDS011;5378;53.206;13.316;2023-09-30T07:55:25;12.33;;;3.13;;
10659;SDS011;5378;53.206;13.316;2023-09-30T07:58:12;13.60;;;3.00;;
10659;SDS011;5378;53.206;13.316;2023-09-30T08:01:00;8.53;;;2.13;;
10659;SDS011;5378;53.206;13.316;2023-09-30T08:03:48;9.57;;;2.30;;
10659;SDS011;5378;53.206;13.316;2023-09-30T08:06:37;11.33;;;2.50;;
10659;SDS011;5378;53.206;13.316;2023-09-30T08:09:25;14.00;;;3.00;;
10659;SDS011;5378;53.206;13.316;2023-09-30T08:12:12;16.50;;;2.53;;
10659;SDS011;5378;53.206;13.316;2023-09-30T08:14:59;14.30;;;2.43;;
10659;SDS011;5378;53.206;13.316;2023-09-30T08:17:49;24.97;;;2.83;;
10659;SDS011;5378;53.206;13.316;2023-09-30T08:20:36;7.03;;;1.77;;
10659;SDS011;5378;53.206;13.316;2023-09-30T08:23:25;6.27;;;2.00;;
10659;SDS011;5378;53.206;13.316;2023-09-30T08:26:12;15.93;;;2.87;;
10659;SDS011;5378;53.206;13.316;2023-09-30T08:28:59;6.30;;;2.27;;
10659;SDS011;5378;53.206;13.316;2023-09-30T08:31:47;4.60;;;1.90;;
10659;SDS011;5378;53.206;13.316;2023-09-30T08:34:35;5.93;;;2.23;;
10659;SDS011;5378;53.206;13.316;2023-09-30T08:37:22;15.57;;;2.47;;
10659;SDS011;5378;53.206;13.316;2023-09-30T08:40:11;11.10;;;2.53;;
10659;SDS011;5378;53.206;13.316;2023-09-30T08:42:58;7.27;;;2.33;;
10659;SDS011;5378;53.206;13.316;2023-09-30T08:45:46;7.97;;;2.30;;
10659;SDS011;5378;53.206;13.316;2023-09-30T08:48:38;18.13;;;3.13;;
10659;SDS011;5378;53.206;13.316;2023-09-30T08:51:25;11.80;;;2.17;;
10659;SDS011;5378;53.206;13.316;2023-09-30T08:54:13;8.13;;;2.50;;
10659;SDS011;5378;53.206;13.316;2023-09-30T08:57:01;7.50;;;2.00;;
10659;SDS011;5378;53.206;13.316;2023-09-30T08:59:50;13.97;;;2.30;;
10659;SDS011;5378;53.206;13.316;2023-09-30T09:02:40;12.93;;;2.03;;
10659;SDS011;5378;53.206;13.316;2023-09-30T09:05:28;19.90;;;3.20;;
10659;SDS011;5378;53.206;13.316;2023-09-30T09:08:16;12.77;;;2.40;;
10659;SDS011;5378;53.206;13.316;2023-09-30T09:11:09;8.60;;;2.07;;
10659;SDS011;5378;53.206;13.316;2023-09-30T09:13:57;8.13;;;2.03;;
10659;SDS011;5378;53.206;13.316;2023-09-30T09:16:50;8.83;;;2.13;;
10659;SDS011;5378;53.206;13.316;2023-09-30T09:19:39;12.80;;;2.20;;
10659;SDS011;5378;53.206;13.316;2023-09-30T09:22:37;20.23;;;2.37;;
10659;SDS011;5378;53.206;13.316;2023-09-30T09:25:24;6.47;;;1.70;;
10659;SDS011;5378;53.206;13.316;2023-09-30T09:28:12;10.13;;;1.90;;
10659;SDS011;5378;53.206;13.316;2023-09-30T09:31:03;9.23;;;2.50;;
10659;SDS011;5378;53.206;13.316;2023-09-30T09:34:12;11.47;;;2.33;;
10659;SDS011;5378;53.206;13.316;2023-09-30T09:37:01;11.37;;;2.20;;
10659;SDS011;5378;53.206;13.316;2023-09-30T09:40:00;10.70;;;2.70;;
10659;SDS011;5378;53.206;13.316;2023-09-30T09:42:49;8.03;;;1.70;;
10659;SDS011;5378;53.206;13.316;2023-09-30T09:45:39;8.87;;;1.93;;
10659;SDS011;5378;53.206;13.316;2023-09-30T09:48:29;10.10;;;2.40;;
10659;SDS011;5378;53.206;13.316;2023-09-30T09:51:17;11.77;;;2.13;;
10659;SDS011;5378;53.206;13.316;2023-09-30T09:54:05;13.07;;;1.93;;
10659;SDS011;5378;53.206;13.316;2023-09-30T09:56:53;7.83;;;1.43;;
10659;SDS011;5378;53.206;13.316;2023-09-30T09:59:46;8.73;;;2.50;;
10659;SDS011;5378;53.206;13.316;2023-09-30T10:02:34;10.83;;;2.37;;
10659;SDS011;5378;53.206;13.316;2023-09-30T10:05:24;11.53;;;1.50;;
10659;SDS011;5378;53.206;13.316;2023-09-30T10:08:14;8.90;;;1.70;;
10659;SDS011;5378;53.206;13.316;2023-09-30T10:11:04;11.40;;;2.40;;
10659;SDS011;5378;53.206;13.316;2023-09-30T10:13:52;16.30;;;1.93;;
10659;SDS011;5378;53.206;13.316;2023-09-30T10:16:47;6.47;;;2.33;;
10659;SDS011;5378;53.206;13.316;2023-09-30T10:19:36;7.83;;;1.60;;
10659;SDS011;5378;53.206;13.316;2023-09-30T10:23:03;8.47;;;1.77;;
10659;SDS011;5378;53.206;13.316;2023-09-30T10:26:14;9.07;;;2.10;;
10659;SDS011;5378;53.206;13.316;2023-09-30T10:29:08;8.57;;;1.90;;
10659;SDS011;5378;53.206;13.316;2023-09-30T10:31:56;7.37;;;1.90;;
10659;SDS011;5378;53.206;13.316;2023-09-30T10:34:47;5.03;;;1.30;;
10659;SDS011;5378;53.206;13.316;2023-09-30T10:37:36;8.77;;;1.57;;
10659;SDS011;5378;53.206;13.316;2023-09-30T10:40:25;4.27;;;1.43;;
10659;SDS011;5378;53.206;13.316;2023-09-30T10:43:28;6.10;;;1.40;;
10659;SDS011;5378;53.206;13.316;2023-09-30T10:46:29;13.00;;;2.13;;
10659;SDS011;5378;53.206;13.316;2023-09-30T10:49:30;7.70;;;1.30;;
10659;SDS011;5378;53.206;13.316;2023-09-30T10:52:24;9.60;;;1.50;;
10659;SDS011;5378;53.206;13.316;2023-09-30T10:55:17;11.87;;;1.77;;
10659;SDS011;5378;53.206;13.316;2023-09-30T10:58:05;6.43;;;1.87;;
10659;SDS011;5378;53.206;13.316;2023-09-30T11:00:52;9.90;;;1.97;;
10659;SDS011;5378;53.206;13.316;2023-09-30T11:03:40;2.43;;;1.00;;
10659;SDS011;5378;53.206;13.316;2023-09-30T11:06:27;10.43;;;2.07;;
10659;SDS011;5378;53.206;13.316;2023-09-30T11:09:15;11.23;;;1.73;;
10659;SDS011;5378;53.206;13.316;2023-09-30T11:12:04;8.03;;;1.77;;
10659;SDS011;5378;53.206;13.316;2023-09-30T11:15:01;9.03;;;1.40;;
10659;SDS011;5378;53.206;13.316;2023-09-30T11:17:49;8.43;;;1.30;;
10659;SDS011;5378;53.206;13.316;2023-09-30T11:20:37;7.33;;;2.10;;
10659;SDS011;5378;53.206;13.316;2023-09-30T11:23:24;3.63;;;1.30;;
10659;SDS011;5378;53.206;13.316;2023-09-30T11:26:11;5.67;;;1.47;;
10659;SDS011;5378;53.206;13.316;2023-09-30T11:29:05;14.60;;;1.77;;
10659;SDS011;5378;53.206;13.316;2023-09-30T11:31:54;6.47;;;1.03;;
10659;SDS011;5378;53.206;13.316;2023-09-30T11:34:41;7.07;;;1.80;;
10659;SDS011;5378;53.206;13.316;2023-09-30T11:37:31;7.50;;;2.10;;
10659;SDS011;5378;53.206;13.316;2023-09-30T11:40:19;16.70;;;1.50;;
10659;SDS011;5378;53.206;13.316;2023-09-30T11:43:09;8.60;;;1.03;;
10659;SDS011;5378;53.206;13.316;2023-09-30T11:46:05;9.07;;;2.13;;
10659;SDS011;5378;53.206;13.316;2023-09-30T11:48:56;6.53;;;1.13;;
10659;SDS011;5378;53.206;13.316;2023-09-30T11:51:45;16.33;;;2.00;;
10659;SDS011;5378;53.206;13.316;2023-09-30T11:54:33;7.43;;;1.13;;
10659;SDS011;5378;53.206;13.316;2023-09-30T11:57:23;5.70;;;1.80;;
10659;SDS011;5378;53.206;13.316;2023-09-30T12:00:11;11.17;;;1.80;;
10659;SDS011;5378;53.206;13.316;2023-09-30T12:03:01;3.47;;;1.07;;
10659;SDS011;5378;53.206;13.316;2023-09-30T12:05:49;5.63;;;1.60;;
10659;SDS011;5378;53.206;13.316;2023-09-30T12:08:36;8.40;;;1.93;;
10659;SDS011;5378;53.206;13.316;2023-09-30T12:11:23;17.60;;;1.50;;
10659;SDS011;5378;53.206;13.316;2023-09-30T12:14:11;7.97;;;1.60;;
10659;SDS011;5378;53.206;13.316;2023-09-30T12:16:59;3.30;;;1.20;;
10659;SDS011;5378;53.206;13.316;2023-09-30T12:19:47;6.10;;;1.13;;
10659;SDS011;5378;53.206;13.316;2023-09-30T12:22:35;6.77;;;1.60;;
10659;SDS011;5378;53.206;13.316;2023-09-30T12:25:23;8.40;;;1.30;;
10659;SDS011;5378;53.206;13.316;2023-09-30T12:28:11;6.27;;;1.37;;
10659;SDS011;5378;53.206;13.316;2023-09-30T12:30:59;6.63;;;1.50;;
10659;SDS011;5378;53.206;13.316;2023-09-30T12:33:48;6.30;;;1.47;;
10659;SDS011;5378;53.206;13.316;2023-09-30T12:36:38;6.80;;;1.70;;
10659;SDS011;5378;53.206;13.316;2023-09-30T12:39:25;7.80;;;1.90;;
10659;SDS011;5378;53.206;13.316;2023-09-30T12:42:15;9.70;;;1.83;;
10659;SDS011;5378;53.206;13.316;2023-09-30T12:45:02;9.07;;;1.40;;
10659;SDS011;5378;53.206;13.316;2023-09-30T12:47:51;3.50;;;0.80;;
10659;SDS011;5378;53.206;13.316;2023-09-30T12:50:39;5.63;;;1.47;;
10659;SDS011;5378;53.206;13.316;2023-09-30T12:53:28;6.23;;;1.47;;
10659;SDS011;5378;53.206;13.316;2023-09-30T12:56:16;4.10;;;0.87;;
10659;SDS011;5378;53.206;13.316;2023-09-30T12:59:03;9.03;;;1.60;;
10659;SDS011;5378;53.206;13.316;2023-09-30T13:01:50;17.93;;;2.47;;
10659;SDS011;5378;53.206;13.316;2023-09-30T13:04:38;6.30;;;1.23;;
10659;SDS011;5378;53.206;13.316;2023-09-30T13:07:28;4.53;;;1.47;;
10659;SDS011;5378;53.206;13.316;2023-09-30T13:10:17;13.13;;;1.33;;
10659;SDS011;5378;53.206;13.316;2023-09-30T13:13:05;13.87;;;1.33;;
10659;SDS011;5378;53.206;13.316;2023-09-30T13:15:52;7.37;;;1.10;;
10659;SDS011;5378;53.206;13.316;2023-09-30T13:18:39;11.37;;;1.80;;
10659;SDS011;5378;53.206;13.316;2023-09-30T13:21:27;7.77;;;1.77;;
10659;SDS011;5378;53.206;13.316;2023-09-30T13:24:13;15.07;;;1.73;;
10659;SDS011;5378;53.206;13.316;2023-09-30T13:27:02;8.13;;;1.40;;
10659;SDS011;5378;53.206;13.316;2023-09-30T13:29:49;8.43;;;1.10;;
10659;SDS011;5378;53.206;13.316;2023-09-30T13:32:37;3.73;;;1.17;;
10659;SDS011;5378;53.206;13.316;2023-09-30T13:35:24;5.80;;;1.23;;
10659;SDS011;5378;53.206;13.316;2023-09-30T13:38:11;2.60;;;0.80;;
10659;SDS011;5378;53.206;13.316;2023-09-30T13:40:59;3.90;;;1.20;;
10659;SDS011;5378;53.206;13.316;2023-09-30T13:43:48;4.57;;;1.03;;
10659;SDS011;5378;53.206;13.316;2023-09-30T13:46:35;8.27;;;1.30;;
10659;SDS011;5378;53.206;13.316;2023-09-30T13:49:22;9.67;;;1.80;;
10659;SDS011;5378;53.206;13.316;2023-09-30T13:52:09;4.57;;;1.30;;
10659;SDS011;5378;53.206;13.316;2023-09-30T13:54:56;3.83;;;1.73;;
10659;SDS011;5378;53.206;13.316;2023-09-30T13:57:43;13.53;;;1.23;;
10659;SDS011;5378;53.206;13.316;2023-09-30T14:00:32;8.00;;;2.07;;
10659;SDS011;5378;53.206;13.316;2023-09-30T14:03:20;5.70;;;1.00;;
10659;SDS011;5378;53.206;13.316;2023-09-30T14:06:09;5.77;;;1.20;;
10659;SDS011;5378;53.206;13.316;2023-09-30T14:08:57;5.80;;;1.37;;
10659;SDS011;5378;53.206;13.316;2023-09-30T14:11:44;11.60;;;1.47;;
10659;SDS011;5378;53.206;13.316;2023-09-30T14:14:33;25.47;;;1.50;;
10659;SDS011;5378;53.206;13.316;2023-09-30T14:17:22;7.30;;;1.40;;
10659;SDS011;5378;53.206;13.316;2023-09-30T14:20:09;3.87;;;1.50;;
10659;SDS011;5378;53.206;13.316;2023-09-30T14:22:58;5.77;;;1.60;;
10659;SDS011;5378;53.206;13.316;2023-09-30T14:25:45;9.33;;;1.60;;
10659;SDS011;5378;53.206;13.316;2023-09-30T14:28:32;8.13;;;1.23;;
10659;SDS011;5378;53.206;13.316;2023-09-30T14:31:19;4.50;;;1.57;;
10659;SDS011;5378;53.206;13.316;2023-09-30T14:34:08;6.40;;;1.10;;
10659;SDS011;5378;53.206;13.316;2023-09-30T14:36:55;5.80;;;1.40;;
10659;SDS011;5378;53.206;13.316;2023-09-30T14:39:42;9.67;;;1.80;;
10659;SDS011;5378;53.206;13.316;2023-09-30T14:42:29;4.93;;;1.90;;
10659;SDS011;5378;53.206;13.316;2023-09-30T14:45:16;5.60;;;1.60;;
10659;SDS011;5378;53.206;13.316;2023-09-30T14:48:05;2.30;;;0.80;;
10659;SDS011;5378;53.206;13.316;2023-09-30T14:50:54;9.10;;;1.30;;
10659;SDS011;5378;53.206;13.316;2023-09-30T14:53:42;9.00;;;1.27;;
10659;SDS011;5378;53.206;13.316;2023-09-30T14:56:29;5.97;;;1.03;;
10659;SDS011;5378;53.206;13.316;2023-09-30T14:59:16;3.20;;;1.27;;
10659;SDS011;5378;53.206;13.316;2023-09-30T15:02:03;3.77;;;1.13;;
10659;SDS011;5378;53.206;13.316;2023-09-30T15:04:50;7.27;;;1.07;;
10659;SDS011;5378;53.206;13.316;2023-09-30T15:07:38;8.10;;;1.77;;
10659;SDS011;5378;53.206;13.316;2023-09-30T15:10:26;6.10;;;0.90;;
10659;SDS011;5378;53.206;13.316;2023-09-30T15:13:13;5.10;;;1.30;;
10659;SDS011;5378;53.206;13.316;2023-09-30T15:16:01;7.20;;;2.00;;
10659;SDS011;5378;53.206;13.316;2023-09-30T15:18:49;5.10;;;1.30;;
10659;SDS011;5378;53.206;13.316;2023-09-30T15:21:36;4.40;;;2.03;;
10659;SDS011;5378;53.206;13.316;2023-09-30T15:24:25;5.50;;;0.90;;
10659;SDS011;5378;53.206;13.316;2023-09-30T15:27:12;7.40;;;1.57;;
10659;SDS011;5378;53.206;13.316;2023-09-30T15:29:59;7.37;;;1.10;;
10659;SDS011;5378;53.206;13.316;2023-09-30T15:32:46;12.30;;;1.77;;
10659;SDS011;5378;53.206;13.316;2023-09-30T15:35:34;3.70;;;1.00;;
10659;SDS011;5378;53.206;13.316;2023-09-30T15:38:21;3.93;;;1.30;;
10659;SDS011;5378;53.206;13.316;2023-09-30T15:41:09;6.13;;;1.53;;
10659;SDS011;5378;53.206;13.316;2023-09-30T15:43:59;10.00;;;1.20;;
10659;SDS011;5378;53.206;13.316;2023-09-30T15:46:46;6.20;;;1.33;;
10659;SDS011;5378;53.206;13.316;2023-09-30T15:49:34;4.40;;;1.10;;
10659;SDS011;5378;53.206;13.316;2023-09-30T15:52:21;2.77;;;1.33;;
10659;SDS011;5378;53.206;13.316;2023-09-30T15:55:08;5.57;;;1.57;;
10659;SDS011;5378;53.206;13.316;2023-09-30T15:57:57;2.47;;;1.53;;
10659;SDS011;5378;53.206;13.316;2023-09-30T16:00:45;5.17;;;1.10;;
10659;SDS011;5378;53.206;13.316;2023-09-30T16:03:34;5.87;;;1.57;;
10659;SDS011;5378;53.206;13.316;2023-09-30T16:06:21;4.63;;;1.40;;
10659;SDS011;5378;53.206;13.316;2023-09-30T16:09:09;6.10;;;1.10;;
10659;SDS011;5378;53.206;13.316;2023-09-30T16:11:56;4.20;;;1.13;;
10659;SDS011;5378;53.206;13.316;2023-09-30T16:14:44;7.27;;;1.03;;
10659;SDS011;5378;53.206;13.316;2023-09-30T16:17:32;21.93;;;1.70;;
10659;SDS011;5378;53.206;13.316;2023-09-30T16:20:19;7.83;;;1.60;;
10659;SDS011;5378;53.206;13.316;2023-09-30T16:23:10;7.40;;;1.70;;
10659;SDS011;5378;53.206;13.316;2023-09-30T16:25:58;14.10;;;2.60;;
10659;SDS011;5378;53.206;13.316;2023-09-30T16:28:45;7.03;;;1.27;;
10659;SDS011;5378;53.206;13.316;2023-09-30T16:31:34;4.00;;;1.30;;
10659;SDS011;5378;53.206;13.316;2023-09-30T16:34:22;4.00;;;1.23;;
10659;SDS011;5378;53.206;13.316;2023-09-30T16:37:09;4.53;;;1.00;;
10659;SDS011;5378;53.206;13.316;2023-09-30T16:39:56;4.03;;;1.40;;
10659;SDS011;5378;53.206;13.316;2023-09-30T16:42:43;9.43;;;1.50;;
10659;SDS011;5378;53.206;13.316;2023-09-30T16:45:31;5.77;;;1.60;;
10659;SDS011;5378;53.206;13.316;2023-09-30T16:48:19;4.17;;;1.00;;